^^
Station Historical Data
 
Daily Summary for October 02, 2014 Units:  Metric    English   Both
« Previous Day
Next Day »
Daily Weekly Monthly Yearly Custom
  Current: High: Low: Average:
Temperature: 12.8 °C 14.8 °C 11.7 °C 12.5 °C
Dew Point: 12.2 °C 13.5 °C 10.8 °C 11.6 °C
Humidity: 96% 96% 92% 94%
Wind Speed: 0.0km/h 0.0km/h 0.0km/h 0km/h
Wind Gust: 0.0km/h 0.0km/h - -
WindCalm - - North
Pressure: 1027.3 hPa 1027.3 hPa 1026.6 hPa -
Precipitation: 0.0 mm      
Historical Graphs
 
 
Tabular Data for October 02, 2014
Time Temperature Dew Point Pressure Wind Wind Speed Wind Gust Humidity Rainfall Rate (Hourly) solar Conditions
00:00 14.8 °C 13.5 °C 1026.6 hPa Calm     92% 0.0 mm 0 W/m2
00:05 14.7 °C 13.4 °C 1026.6 hPa Calm     92% 0.0 mm 0 W/m2
00:10 14.6 °C 13.3 °C 1026.6 hPa Calm     92% 0.0 mm 0 W/m2
00:15 14.6 °C 13.3 °C 1026.6 hPa Calm     92% 0.0 mm 0 W/m2
00:20 14.4 °C 13.1 °C 1026.6 hPa Calm     92% 0.0 mm 0 W/m2
00:25 14.3 °C 13.0 °C 1026.6 hPa Calm     92% 0.0 mm 0 W/m2
00:30 14.3 °C 13.0 °C 1027.0 hPa Calm     92% 0.0 mm 0 W/m2
00:35 14.2 °C 12.9 °C 1026.6 hPa Calm     92% 0.0 mm 0 W/m2
00:40 14.1 °C 12.8 °C 1027.0 hPa Calm     92% 0.0 mm 0 W/m2
00:45 14.0 °C 12.7 °C 1027.0 hPa Calm     92% 0.0 mm 0 W/m2
00:55 13.8 °C 12.5 °C 1027.0 hPa Calm     92% 0.0 mm 0 W/m2
01:00 13.7 °C 12.4 °C 1027.0 hPa Calm     92% 0.0 mm 0 W/m2
01:05 13.7 °C 12.4 °C 1027.0 hPa Calm     92% 0.0 mm 0 W/m2
01:10 13.6 °C 12.3 °C 1027.0 hPa Calm     92% 0.0 mm 0 W/m2
01:20 13.4 °C 12.1 °C 1027.0 hPa Calm     92% 0.0 mm 0 W/m2
01:25 13.3 °C 12.0 °C 1027.0 hPa Calm     92% 0.0 mm 0 W/m2
01:35 13.1 °C 11.8 °C 1027.0 hPa Calm     92% 0.0 mm 0 W/m2
01:40 13.1 °C 11.8 °C 1027.0 hPa Calm     92% 0.0 mm 0 W/m2
01:45 12.9 °C 11.6 °C 1027.0 hPa Calm     92% 0.0 mm 0 W/m2
01:50 12.9 °C 11.6 °C 1027.0 hPa Calm     92% 0.0 mm 0 W/m2
01:55 12.8 °C 11.7 °C 1027.0 hPa Calm     93% 0.0 mm 0 W/m2
02:00 12.8 °C 11.7 °C 1027.0 hPa Calm     93% 0.0 mm 0 W/m2
02:05 12.7 °C 11.4 °C 1027.0 hPa Calm     92% 0.0 mm 0 W/m2
02:10 12.7 °C 11.6 °C 1027.0 hPa Calm     93% 0.0 mm 0 W/m2
02:15 12.6 °C 11.5 °C 1027.0 hPa Calm     93% 0.0 mm 0 W/m2
02:20 12.5 °C 11.4 °C 1027.0 hPa Calm     93% 0.0 mm 0 W/m2
02:25 12.5 °C 11.4 °C 1027.0 hPa Calm     93% 0.0 mm 0 W/m2
02:30 12.4 °C 11.3 °C 1027.0 hPa Calm     93% 0.0 mm 0 W/m2
02:35 12.4 °C 11.3 °C 1027.0 hPa Calm     93% 0.0 mm 0 W/m2
02:40 12.3 °C 11.2 °C 1027.0 hPa Calm     93% 0.0 mm 0 W/m2
02:45 12.2 °C 11.1 °C 1027.0 hPa Calm     93% 0.0 mm 0 W/m2
02:55 12.2 °C 11.1 °C 1027.0 hPa Calm     93% 0.0 mm 0 W/m2
03:00 12.1 °C 11.0 °C 1027.0 hPa Calm     93% 0.0 mm 0 W/m2
03:05 12.1 °C 11.0 °C 1027.0 hPa Calm     93% 0.0 mm 0 W/m2
03:10 12.0 °C 10.9 °C 1027.0 hPa Calm     93% 0.0 mm 0 W/m2
03:15 12.0 °C 10.9 °C 1026.6 hPa Calm     93% 0.0 mm 0 W/m2
03:20 11.9 °C 10.8 °C 1026.6 hPa Calm     93% 0.0 mm 0 W/m2
03:25 11.9 °C 10.8 °C 1026.6 hPa Calm     93% 0.0 mm 0 W/m2
03:30 11.9 °C 10.9 °C 1026.6 hPa Calm     94% 0.0 mm 0 W/m2
03:35 11.9 °C 10.9 °C 1026.6 hPa Calm     94% 0.0 mm 0 W/m2
03:40 12.0 °C 11.1 °C 1026.6 hPa Calm     94% 0.0 mm 0 W/m2
03:45 11.9 °C 10.9 °C 1026.6 hPa Calm     94% 0.0 mm 0 W/m2
03:50 11.9 °C 10.9 °C 1026.6 hPa Calm     94% 0.0 mm 0 W/m2
03:55 11.9 °C 10.9 °C 1026.6 hPa Calm     94% 0.0 mm 0 W/m2
04:00 11.9 °C 10.9 °C 1026.6 hPa Calm     94% 0.0 mm 0 W/m2
04:05 11.9 °C 10.9 °C 1026.6 hPa Calm     94% 0.0 mm 0 W/m2
04:10 11.9 °C 10.9 °C 1026.6 hPa Calm     94% 0.0 mm 0 W/m2
04:15 11.8 °C 10.9 °C 1026.6 hPa Calm     94% 0.0 mm 0 W/m2
04:20 11.8 °C 10.9 °C 1026.6 hPa Calm     94% 0.0 mm 0 W/m2
04:25 11.8 °C 10.9 °C 1026.6 hPa Calm     94% 0.0 mm 0 W/m2
04:30 11.7 °C 10.8 °C 1026.6 hPa Calm     94% 0.0 mm 0 W/m2
04:40 11.7 °C 10.8 °C 1026.6 hPa Calm     94% 0.0 mm 0 W/m2
04:45 11.7 °C 10.8 °C 1026.6 hPa Calm     94% 0.0 mm 0 W/m2
04:50 11.7 °C 10.9 °C 1026.6 hPa Calm     95% 0.0 mm 0 W/m2
04:55 11.7 °C 10.9 °C 1026.6 hPa Calm     95% 0.0 mm 0 W/m2
05:00 11.8 °C 11.0 °C 1026.6 hPa Calm     95% 0.0 mm 0 W/m2
05:05 11.8 °C 11.0 °C 1026.6 hPa Calm     95% 0.0 mm 0 W/m2
05:10 11.8 °C 11.0 °C 1026.6 hPa Calm     95% 0.0 mm 0 W/m2
05:20 11.9 °C 11.1 °C 1026.6 hPa Calm     95% 0.0 mm 0 W/m2
05:25 11.9 °C 11.1 °C 1026.6 hPa Calm     95% 0.0 mm 0 W/m2
05:30 11.9 °C 11.1 °C 1026.6 hPa Calm     95% 0.0 mm 0 W/m2
05:35 11.9 °C 11.1 °C 1026.6 hPa Calm     95% 0.0 mm 0 W/m2
05:40 11.9 °C 11.1 °C 1026.6 hPa Calm     95% 0.0 mm 0 W/m2
05:45 11.8 °C 11.0 °C 1026.6 hPa Calm     95% 0.0 mm 0 W/m2
05:50 11.8 °C 11.0 °C 1026.6 hPa Calm     95% 0.0 mm 0 W/m2
06:00 11.8 °C 11.0 °C 1026.6 hPa Calm     95% 0.0 mm 0 W/m2
06:05 11.8 °C 11.0 °C 1026.6 hPa Calm     95% 0.0 mm 0 W/m2
06:10 11.8 °C 11.0 °C 1026.6 hPa Calm     95% 0.0 mm 0 W/m2
06:15 11.8 °C 11.0 °C 1026.6 hPa Calm     95% 0.0 mm 0 W/m2
06:20 11.8 °C 11.0 °C 1026.6 hPa Calm     95% 0.0 mm 0 W/m2
06:25 11.9 °C 11.1 °C 1026.6 hPa Calm     95% 0.0 mm 0 W/m2
06:30 12.0 °C 11.4 °C 1026.6 hPa Calm     96% 0.0 mm 0 W/m2
06:35 12.1 °C 11.3 °C 1026.6 hPa Calm     95% 0.0 mm 0 W/m2
06:40 12.1 °C 11.3 °C 1026.6 hPa Calm     95% 0.0 mm 0 W/m2
06:45 12.2 °C 11.6 °C 1026.6 hPa Calm     96% 0.0 mm 0 W/m2
06:50 12.2 °C 11.6 °C 1026.6 hPa Calm     96% 0.0 mm 0 W/m2
06:55 12.2 °C 11.6 °C 1026.6 hPa Calm     96% 0.0 mm 0 W/m2
07:00 12.3 °C 11.7 °C 1027.0 hPa Calm     96% 0.0 mm 0 W/m2
07:05 12.3 °C 11.7 °C 1027.0 hPa Calm     96% 0.0 mm 0 W/m2
07:10 12.4 °C 11.8 °C 1027.0 hPa Calm     96% 0.0 mm 0 W/m2
07:15 12.4 °C 11.8 °C 1027.0 hPa Calm     96% 0.0 mm 0 W/m2
07:20 12.5 °C 11.9 °C 1027.0 hPa Calm     96% 0.0 mm 0 W/m2
07:25 12.6 °C 12.0 °C 1027.0 hPa Calm     96% 0.0 mm 0 W/m2
07:30 12.6 °C 12.0 °C 1027.0 hPa Calm     96% 0.0 mm 0 W/m2
07:35 12.7 °C 12.1 °C 1027.0 hPa Calm     96% 0.0 mm 0 W/m2
07:40 12.7 °C 12.1 °C 1027.0 hPa Calm     96% 0.0 mm 0 W/m2
07:45 12.7 °C 12.1 °C 1027.0 hPa Calm     96% 0.0 mm 5 W/m2
07:50 12.8 °C 12.2 °C 1027.0 hPa Calm     96% 0.0 mm 7 W/m2
07:55 12.8 °C 12.2 °C 1027.0 hPa Calm     96% 0.0 mm 9 W/m2
08:00 12.8 °C 12.2 °C 1027.0 hPa Calm     96% 0.0 mm 11 W/m2
08:05 12.8 °C 12.2 °C 1027.3 hPa Calm     96% 0.0 mm 16 W/m2
08:10 12.8 °C 12.2 °C 1027.3 hPa Calm     96% 0.0 mm 14 W/m2
08:15 12.8 °C 12.2 °C 1027.3 hPa Calm     96% 0.0 mm 16 W/m2
08:20 12.8 °C 12.2 °C 1027.3 hPa Calm     96% 0.0 mm 14 W/m2
Tägerwilen, Thurgau, Switzerland
Compliments of Weather Underground